sensor_id;sensor_type;location;lat;lon;timestamp;temperature;humidity
5639;DHT22;2841;44.526;11.360;2023-04-03T00:00:28;10.20;99.90
5639;DHT22;2841;44.526;11.360;2023-04-03T00:02:55;10.20;99.90
5639;DHT22;2841;44.526;11.360;2023-04-03T00:05:22;10.30;99.90
5639;DHT22;2841;44.526;11.360;2023-04-03T00:07:50;10.30;99.90
5639;DHT22;2841;44.526;11.360;2023-04-03T00:10:17;10.40;99.90
5639;DHT22;2841;44.526;11.360;2023-04-03T00:12:44;10.40;99.90
5639;DHT22;2841;44.526;11.360;2023-04-03T00:15:10;10.40;99.90
5639;DHT22;2841;44.526;11.360;2023-04-03T00:17:37;10.40;99.90
5639;DHT22;2841;44.526;11.360;2023-04-03T00:20:05;10.40;99.90
5639;DHT22;2841;44.526;11.360;2023-04-03T00:22:32;10.40;99.90
5639;DHT22;2841;44.526;11.360;2023-04-03T00:25:00;10.30;99.90
5639;DHT22;2841;44.526;11.360;2023-04-03T00:27:26;10.30;99.90
5639;DHT22;2841;44.526;11.360;2023-04-03T00:29:53;10.30;99.90
5639;DHT22;2841;44.526;11.360;2023-04-03T00:32:20;10.30;99.90
5639;DHT22;2841;44.526;11.360;2023-04-03T00:34:47;10.30;99.90
5639;DHT22;2841;44.526;11.360;2023-04-03T00:37:13;10.20;99.90
5639;DHT22;2841;44.526;11.360;2023-04-03T00:39:40;10.20;99.90
5639;DHT22;2841;44.526;11.360;2023-04-03T00:42:08;10.10;99.90
5639;DHT22;2841;44.526;11.360;2023-04-03T00:47:20;9.90;99.90
5639;DHT22;2841;44.526;11.360;2023-04-03T00:49:47;9.80;99.90
5639;DHT22;2841;44.526;11.360;2023-04-03T00:52:16;9.70;99.90
5639;DHT22;2841;44.526;11.360;2023-04-03T00:54:43;9.70;99.90
5639;DHT22;2841;44.526;11.360;2023-04-03T00:57:11;9.70;99.90
5639;DHT22;2841;44.526;11.360;2023-04-03T00:59:39;9.60;99.90
5639;DHT22;2841;44.526;11.360;2023-04-03T01:02:09;9.60;99.90
5639;DHT22;2841;44.526;11.360;2023-04-03T01:04:37;9.50;99.90
5639;DHT22;2841;44.526;11.360;2023-04-03T01:07:05;9.50;99.90
5639;DHT22;2841;44.526;11.360;2023-04-03T01:09:32;9.50;99.90
5639;DHT22;2841;44.526;11.360;2023-04-03T01:12:13;9.50;99.90
5639;DHT22;2841;44.526;11.360;2023-04-03T01:14:41;9.40;99.90
5639;DHT22;2841;44.526;11.360;2023-04-03T01:17:23;9.40;99.90
5639;DHT22;2841;44.526;11.360;2023-04-03T01:19:52;9.40;99.90
5639;DHT22;2841;44.526;11.360;2023-04-03T01:22:22;9.30;99.90
5639;DHT22;2841;44.526;11.360;2023-04-03T01:24:50;9.30;99.90
5639;DHT22;2841;44.526;11.360;2023-04-03T01:27:19;9.20;99.90
5639;DHT22;2841;44.526;11.360;2023-04-03T01:29:46;9.20;99.90
5639;DHT22;2841;44.526;11.360;2023-04-03T01:32:15;9.20;99.90
5639;DHT22;2841;44.526;11.360;2023-04-03T01:34:41;9.10;99.90
5639;DHT22;2841;44.526;11.360;2023-04-03T01:37:08;9.00;99.90
5639;DHT22;2841;44.526;11.360;2023-04-03T01:39:35;9.00;99.90
5639;DHT22;2841;44.526;11.360;2023-04-03T01:42:01;9.10;99.90
5639;DHT22;2841;44.526;11.360;2023-04-03T01:44:29;9.10;99.90
5639;DHT22;2841;44.526;11.360;2023-04-03T01:46:56;9.00;99.90
5639;DHT22;2841;44.526;11.360;2023-04-03T01:49:24;9.00;99.90
5639;DHT22;2841;44.526;11.360;2023-04-03T01:51:51;9.00;99.90
5639;DHT22;2841;44.526;11.360;2023-04-03T01:54:17;9.00;99.90
5639;DHT22;2841;44.526;11.360;2023-04-03T01:56:44;9.00;99.90
5639;DHT22;2841;44.526;11.360;2023-04-03T01:59:11;9.00;99.90
5639;DHT22;2841;44.526;11.360;2023-04-03T02:01:38;9.00;99.90
5639;DHT22;2841;44.526;11.360;2023-04-03T02:04:04;8.90;99.90
5639;DHT22;2841;44.526;11.360;2023-04-03T02:06:33;9.00;99.90
5639;DHT22;2841;44.526;11.360;2023-04-03T02:09:00;9.00;99.90
5639;DHT22;2841;44.526;11.360;2023-04-03T02:11:26;9.10;99.90
5639;DHT22;2841;44.526;11.360;2023-04-03T02:13:53;9.10;99.90
5639;DHT22;2841;44.526;11.360;2023-04-03T02:16:20;9.20;99.90
5639;DHT22;2841;44.526;11.360;2023-04-03T02:18:47;9.20;99.90
5639;DHT22;2841;44.526;11.360;2023-04-03T02:21:13;9.30;99.90
5639;DHT22;2841;44.526;11.360;2023-04-03T02:23:41;9.30;99.90
5639;DHT22;2841;44.526;11.360;2023-04-03T02:26:09;9.40;99.90
5639;DHT22;2841;44.526;11.360;2023-04-03T02:28:36;9.40;99.90
5639;DHT22;2841;44.526;11.360;2023-04-03T02:31:03;9.40;99.90
5639;DHT22;2841;44.526;11.360;2023-04-03T02:33:31;9.50;99.90
5639;DHT22;2841;44.526;11.360;2023-04-03T02:35:58;9.50;99.90
5639;DHT22;2841;44.526;11.360;2023-04-03T02:38:25;9.50;99.90
5639;DHT22;2841;44.526;11.360;2023-04-03T02:40:53;9.50;99.90
5639;DHT22;2841;44.526;11.360;2023-04-03T02:43:20;9.60;99.90
5639;DHT22;2841;44.526;11.360;2023-04-03T02:45:47;9.50;99.90
5639;DHT22;2841;44.526;11.360;2023-04-03T02:48:14;9.50;99.90
5639;DHT22;2841;44.526;11.360;2023-04-03T02:50:42;9.50;99.90
5639;DHT22;2841;44.526;11.360;2023-04-03T02:53:08;9.60;99.90
5639;DHT22;2841;44.526;11.360;2023-04-03T02:55:35;9.60;99.90
5639;DHT22;2841;44.526;11.360;2023-04-03T02:58:03;9.60;99.90
5639;DHT22;2841;44.526;11.360;2023-04-03T03:00:30;9.60;99.90
5639;DHT22;2841;44.526;11.360;2023-04-03T03:02:57;9.60;99.90
5639;DHT22;2841;44.526;11.360;2023-04-03T03:05:23;9.60;99.90
5639;DHT22;2841;44.526;11.360;2023-04-03T03:07:50;9.50;99.90
5639;DHT22;2841;44.526;11.360;2023-04-03T03:10:17;9.60;99.90
5639;DHT22;2841;44.526;11.360;2023-04-03T03:12:43;9.50;99.90
5639;DHT22;2841;44.526;11.360;2023-04-03T03:15:12;9.50;99.90
5639;DHT22;2841;44.526;11.360;2023-04-03T03:17:38;9.50;99.90
5639;DHT22;2841;44.526;11.360;2023-04-03T03:20:06;9.50;99.90
5639;DHT22;2841;44.526;11.360;2023-04-03T03:22:33;9.50;99.90
5639;DHT22;2841;44.526;11.360;2023-04-03T03:24:59;9.50;99.90
5639;DHT22;2841;44.526;11.360;2023-04-03T03:27:27;9.50;99.90
5639;DHT22;2841;44.526;11.360;2023-04-03T03:29:54;9.50;99.90
5639;DHT22;2841;44.526;11.360;2023-04-03T03:32:22;9.50;99.90
5639;DHT22;2841;44.526;11.360;2023-04-03T03:34:48;9.50;99.90
5639;DHT22;2841;44.526;11.360;2023-04-03T03:37:15;9.50;99.90
5639;DHT22;2841;44.526;11.360;2023-04-03T03:39:42;9.50;99.90
5639;DHT22;2841;44.526;11.360;2023-04-03T03:42:09;9.50;99.90
5639;DHT22;2841;44.526;11.360;2023-04-03T03:44:36;9.50;99.90
5639;DHT22;2841;44.526;11.360;2023-04-03T03:47:03;9.50;99.90
5639;DHT22;2841;44.526;11.360;2023-04-03T03:49:32;9.50;99.90
5639;DHT22;2841;44.526;11.360;2023-04-03T03:51:59;9.40;99.90
5639;DHT22;2841;44.526;11.360;2023-04-03T03:54:26;9.50;99.90
5639;DHT22;2841;44.526;11.360;2023-04-03T03:56:52;9.50;99.90
5639;DHT22;2841;44.526;11.360;2023-04-03T03:59:19;9.50;99.90
5639;DHT22;2841;44.526;11.360;2023-04-03T04:01:46;9.50;99.90
5639;DHT22;2841;44.526;11.360;2023-04-03T04:04:13;9.50;99.90
5639;DHT22;2841;44.526;11.360;2023-04-03T04:06:41;9.60;99.90
5639;DHT22;2841;44.526;11.360;2023-04-03T04:09:08;9.60;99.90
5639;DHT22;2841;44.526;11.360;2023-04-03T04:11:35;9.60;99.90
5639;DHT22;2841;44.526;11.360;2023-04-03T04:14:02;9.60;99.90
5639;DHT22;2841;44.526;11.360;2023-04-03T04:16:28;9.60;99.90
5639;DHT22;2841;44.526;11.360;2023-04-03T04:18:55;9.60;99.90
5639;DHT22;2841;44.526;11.360;2023-04-03T04:21:22;9.60;99.90
5639;DHT22;2841;44.526;11.360;2023-04-03T04:23:50;9.60;99.90
5639;DHT22;2841;44.526;11.360;2023-04-03T04:26:16;9.60;99.90
5639;DHT22;2841;44.526;11.360;2023-04-03T04:28:43;9.60;99.90
5639;DHT22;2841;44.526;11.360;2023-04-03T04:31:10;9.50;99.90
5639;DHT22;2841;44.526;11.360;2023-04-03T04:33:37;9.50;99.90
5639;DHT22;2841;44.526;11.360;2023-04-03T04:36:03;9.50;99.90
5639;DHT22;2841;44.526;11.360;2023-04-03T04:38:30;9.40;99.90
5639;DHT22;2841;44.526;11.360;2023-04-03T04:40:58;9.40;99.90
5639;DHT22;2841;44.526;11.360;2023-04-03T04:43:25;9.40;99.90
5639;DHT22;2841;44.526;11.360;2023-04-03T04:45:59;9.40;99.90
5639;DHT22;2841;44.526;11.360;2023-04-03T04:48:26;9.40;99.90
5639;DHT22;2841;44.526;11.360;2023-04-03T04:50:53;9.40;99.90
5639;DHT22;2841;44.526;11.360;2023-04-03T04:53:20;9.30;99.90
5639;DHT22;2841;44.526;11.360;2023-04-03T04:55:46;9.30;99.90
5639;DHT22;2841;44.526;11.360;2023-04-03T04:58:15;9.30;99.90
5639;DHT22;2841;44.526;11.360;2023-04-03T05:00:42;9.30;99.90
5639;DHT22;2841;44.526;11.360;2023-04-03T05:03:08;9.30;99.90
5639;DHT22;2841;44.526;11.360;2023-04-03T05:05:35;9.20;99.90
5639;DHT22;2841;44.526;11.360;2023-04-03T05:08:02;9.30;99.90
5639;DHT22;2841;44.526;11.360;2023-04-03T05:10:29;9.20;99.90
5639;DHT22;2841;44.526;11.360;2023-04-03T05:12:56;9.30;99.90
5639;DHT22;2841;44.526;11.360;2023-04-03T05:15:24;9.20;99.90
5639;DHT22;2841;44.526;11.360;2023-04-03T05:17:51;9.30;99.90
5639;DHT22;2841;44.526;11.360;2023-04-03T05:20:17;9.20;99.90
5639;DHT22;2841;44.526;11.360;2023-04-03T05:22:44;9.20;99.90
5639;DHT22;2841;44.526;11.360;2023-04-03T05:25:11;9.20;99.90
5639;DHT22;2841;44.526;11.360;2023-04-03T05:27:38;9.20;99.90
5639;DHT22;2841;44.526;11.360;2023-04-03T05:30:05;9.20;99.90
5639;DHT22;2841;44.526;11.360;2023-04-03T05:32:33;9.20;99.90
5639;DHT22;2841;44.526;11.360;2023-04-03T05:35:00;9.30;99.90
5639;DHT22;2841;44.526;11.360;2023-04-03T05:37:27;9.30;99.90
5639;DHT22;2841;44.526;11.360;2023-04-03T05:39:54;9.30;99.90
5639;DHT22;2841;44.526;11.360;2023-04-03T05:42:20;9.40;99.90
5639;DHT22;2841;44.526;11.360;2023-04-03T05:44:47;9.50;99.90
5639;DHT22;2841;44.526;11.360;2023-04-03T05:47:15;9.60;99.90
5639;DHT22;2841;44.526;11.360;2023-04-03T05:49:43;9.60;99.90
5639;DHT22;2841;44.526;11.360;2023-04-03T05:52:11;9.70;99.90
5639;DHT22;2841;44.526;11.360;2023-04-03T05:54:43;9.70;99.90
5639;DHT22;2841;44.526;11.360;2023-04-03T05:57:12;9.80;99.90
5639;DHT22;2841;44.526;11.360;2023-04-03T05:59:38;9.90;99.90
5639;DHT22;2841;44.526;11.360;2023-04-03T06:02:05;9.90;99.90
5639;DHT22;2841;44.526;11.360;2023-04-03T06:04:32;10.00;99.90
5639;DHT22;2841;44.526;11.360;2023-04-03T06:07:00;10.00;99.90
5639;DHT22;2841;44.526;11.360;2023-04-03T06:09:27;10.10;99.90
5639;DHT22;2841;44.526;11.360;2023-04-03T06:11:55;10.20;99.90
5639;DHT22;2841;44.526;11.360;2023-04-03T06:14:23;10.30;99.90
5639;DHT22;2841;44.526;11.360;2023-04-03T06:16:50;10.40;99.90
5639;DHT22;2841;44.526;11.360;2023-04-03T06:19:17;10.40;99.90
5639;DHT22;2841;44.526;11.360;2023-04-03T06:21:44;10.50;99.90
5639;DHT22;2841;44.526;11.360;2023-04-03T06:24:14;10.50;99.90
5639;DHT22;2841;44.526;11.360;2023-04-03T06:26:41;10.50;99.90
5639;DHT22;2841;44.526;11.360;2023-04-03T06:29:08;10.40;99.90
5639;DHT22;2841;44.526;11.360;2023-04-03T06:31:34;10.50;99.90
5639;DHT22;2841;44.526;11.360;2023-04-03T06:34:02;10.50;99.90
5639;DHT22;2841;44.526;11.360;2023-04-03T06:36:28;10.50;99.90
5639;DHT22;2841;44.526;11.360;2023-04-03T06:38:55;10.60;99.90
5639;DHT22;2841;44.526;11.360;2023-04-03T06:41:23;10.60;99.90
5639;DHT22;2841;44.526;11.360;2023-04-03T06:43:51;10.70;99.90
5639;DHT22;2841;44.526;11.360;2023-04-03T06:46:19;10.70;99.90
5639;DHT22;2841;44.526;11.360;2023-04-03T06:48:46;10.80;99.90
5639;DHT22;2841;44.526;11.360;2023-04-03T06:51:19;10.90;99.90
5639;DHT22;2841;44.526;11.360;2023-04-03T06:53:46;11.00;99.90
5639;DHT22;2841;44.526;11.360;2023-04-03T06:56:13;11.00;99.90
5639;DHT22;2841;44.526;11.360;2023-04-03T06:58:42;11.00;99.90
5639;DHT22;2841;44.526;11.360;2023-04-03T07:01:09;11.20;99.90
5639;DHT22;2841;44.526;11.360;2023-04-03T07:03:36;11.20;99.90
5639;DHT22;2841;44.526;11.360;2023-04-03T07:06:03;11.30;99.90
5639;DHT22;2841;44.526;11.360;2023-04-03T07:08:29;11.40;99.90
5639;DHT22;2841;44.526;11.360;2023-04-03T07:10:56;11.40;99.90
5639;DHT22;2841;44.526;11.360;2023-04-03T07:13:23;11.50;99.90
5639;DHT22;2841;44.526;11.360;2023-04-03T07:15:51;11.50;99.90
5639;DHT22;2841;44.526;11.360;2023-04-03T07:18:18;11.60;99.90
5639;DHT22;2841;44.526;11.360;2023-04-03T07:20:45;11.60;99.90
5639;DHT22;2841;44.526;11.360;2023-04-03T07:23:11;11.70;99.90
5639;DHT22;2841;44.526;11.360;2023-04-03T07:25:41;11.70;99.90
5639;DHT22;2841;44.526;11.360;2023-04-03T07:28:08;11.70;99.90
5639;DHT22;2841;44.526;11.360;2023-04-03T07:30:43;11.70;99.90
5639;DHT22;2841;44.526;11.360;2023-04-03T07:33:12;11.80;99.90
5639;DHT22;2841;44.526;11.360;2023-04-03T07:35:39;11.80;99.90
5639;DHT22;2841;44.526;11.360;2023-04-03T07:38:06;11.90;99.90
5639;DHT22;2841;44.526;11.360;2023-04-03T07:40:32;11.90;99.90
5639;DHT22;2841;44.526;11.360;2023-04-03T07:43:00;12.00;99.90
5639;DHT22;2841;44.526;11.360;2023-04-03T07:45:27;12.10;99.90
5639;DHT22;2841;44.526;11.360;2023-04-03T07:47:55;12.10;99.90
5639;DHT22;2841;44.526;11.360;2023-04-03T07:50:23;12.10;99.90
5639;DHT22;2841;44.526;11.360;2023-04-03T07:52:50;12.20;99.90
5639;DHT22;2841;44.526;11.360;2023-04-03T07:55:18;12.30;99.90
5639;DHT22;2841;44.526;11.360;2023-04-03T07:57:44;12.40;99.90
5639;DHT22;2841;44.526;11.360;2023-04-03T08:00:12;12.50;99.90
5639;DHT22;2841;44.526;11.360;2023-04-03T08:02:39;12.60;99.90
5639;DHT22;2841;44.526;11.360;2023-04-03T08:05:08;12.70;99.90
5639;DHT22;2841;44.526;11.360;2023-04-03T08:07:37;12.80;99.90
5639;DHT22;2841;44.526;11.360;2023-04-03T08:10:04;12.90;99.90
5639;DHT22;2841;44.526;11.360;2023-04-03T08:12:31;13.00;99.80
5639;DHT22;2841;44.526;11.360;2023-04-03T08:14:59;13.00;99.20
5639;DHT22;2841;44.526;11.360;2023-04-03T08:17:26;12.90;99.40
5639;DHT22;2841;44.526;11.360;2023-04-03T08:19:53;13.00;99.90
5639;DHT22;2841;44.526;11.360;2023-04-03T08:22:19;13.10;99.90
5639;DHT22;2841;44.526;11.360;2023-04-03T08:24:48;13.30;99.90
5639;DHT22;2841;44.526;11.360;2023-04-03T08:27:14;13.50;99.40
5639;DHT22;2841;44.526;11.360;2023-04-03T08:29:41;13.70;98.80
5639;DHT22;2841;44.526;11.360;2023-04-03T08:32:08;13.90;98.20
5639;DHT22;2841;44.526;11.360;2023-04-03T08:34:35;13.90;97.60
5639;DHT22;2841;44.526;11.360;2023-04-03T08:37:03;14.00;97.60
5639;DHT22;2841;44.526;11.360;2023-04-03T08:39:30;14.00;97.30
5639;DHT22;2841;44.526;11.360;2023-04-03T08:42:00;14.00;97.20
5639;DHT22;2841;44.526;11.360;2023-04-03T08:44:31;13.90;97.50
5639;DHT22;2841;44.526;11.360;2023-04-03T08:47:07;13.90;97.70
5639;DHT22;2841;44.526;11.360;2023-04-03T08:49:39;13.80;98.40
5639;DHT22;2841;44.526;11.360;2023-04-03T08:52:12;13.90;98.80
5639;DHT22;2841;44.526;11.360;2023-04-03T08:54:41;14.00;98.40
5639;DHT22;2841;44.526;11.360;2023-04-03T08:57:16;14.10;98.20
5639;DHT22;2841;44.526;11.360;2023-04-03T08:59:43;14.20;98.00
5639;DHT22;2841;44.526;11.360;2023-04-03T09:02:17;14.40;97.70
5639;DHT22;2841;44.526;11.360;2023-04-03T09:04:46;14.50;97.50
5639;DHT22;2841;44.526;11.360;2023-04-03T09:07:14;14.50;96.80
5639;DHT22;2841;44.526;11.360;2023-04-03T09:09:44;14.50;96.80
5639;DHT22;2841;44.526;11.360;2023-04-03T09:12:17;14.30;96.80
5639;DHT22;2841;44.526;11.360;2023-04-03T09:14:47;14.20;97.20
5639;DHT22;2841;44.526;11.360;2023-04-03T09:17:19;14.10;97.60
5639;DHT22;2841;44.526;11.360;2023-04-03T09:19:49;13.90;98.00
5639;DHT22;2841;44.526;11.360;2023-04-03T09:22:18;13.80;98.50
5639;DHT22;2841;44.526;11.360;2023-04-03T09:24:47;13.70;99.30
5639;DHT22;2841;44.526;11.360;2023-04-03T09:27:17;13.60;99.90
5639;DHT22;2841;44.526;11.360;2023-04-03T09:29:44;13.50;99.90
5639;DHT22;2841;44.526;11.360;2023-04-03T09:32:18;13.40;99.90
5639;DHT22;2841;44.526;11.360;2023-04-03T09:34:45;13.40;99.90
5639;DHT22;2841;44.526;11.360;2023-04-03T09:37:11;13.30;99.90
5639;DHT22;2841;44.526;11.360;2023-04-03T09:39:58;13.30;99.90
5639;DHT22;2841;44.526;11.360;2023-04-03T09:42:27;13.20;99.90
5639;DHT22;2841;44.526;11.360;2023-04-03T09:44:56;13.20;99.90
5639;DHT22;2841;44.526;11.360;2023-04-03T09:47:25;13.20;99.90
5639;DHT22;2841;44.526;11.360;2023-04-03T09:50:08;13.20;99.90
5639;DHT22;2841;44.526;11.360;2023-04-03T09:52:35;13.20;99.90
5639;DHT22;2841;44.526;11.360;2023-04-03T09:55:06;13.20;99.90
5639;DHT22;2841;44.526;11.360;2023-04-03T09:57:34;13.20;99.90
5639;DHT22;2841;44.526;11.360;2023-04-03T10:00:01;13.10;99.90
5639;DHT22;2841;44.526;11.360;2023-04-03T10:02:32;13.10;99.90
5639;DHT22;2841;44.526;11.360;2023-04-03T10:04:59;13.10;99.90
5639;DHT22;2841;44.526;11.360;2023-04-03T10:07:26;13.10;99.90
5639;DHT22;2841;44.526;11.360;2023-04-03T10:09:56;13.10;99.90
5639;DHT22;2841;44.526;11.360;2023-04-03T10:12:24;13.10;99.90
5639;DHT22;2841;44.526;11.360;2023-04-03T10:14:56;13.10;99.90
5639;DHT22;2841;44.526;11.360;2023-04-03T10:17:25;13.10;99.90
5639;DHT22;2841;44.526;11.360;2023-04-03T10:19:55;13.10;99.90
5639;DHT22;2841;44.526;11.360;2023-04-03T10:22:25;13.20;99.90
5639;DHT22;2841;44.526;11.360;2023-04-03T10:24:59;13.30;99.90
5639;DHT22;2841;44.526;11.360;2023-04-03T10:27:31;13.40;99.90
5639;DHT22;2841;44.526;11.360;2023-04-03T10:30:03;13.50;99.90
5639;DHT22;2841;44.526;11.360;2023-04-03T10:32:42;13.70;99.90
5639;DHT22;2841;44.526;11.360;2023-04-03T10:35:12;13.90;99.30
5639;DHT22;2841;44.526;11.360;2023-04-03T10:37:48;13.90;98.50
5639;DHT22;2841;44.526;11.360;2023-04-03T10:40:22;13.90;97.80
5639;DHT22;2841;44.526;11.360;2023-04-03T10:42:51;13.90;97.90
5639;DHT22;2841;44.526;11.360;2023-04-03T10:45:23;13.90;97.70
5639;DHT22;2841;44.526;11.360;2023-04-03T10:47:54;14.00;97.50
5639;DHT22;2841;44.526;11.360;2023-04-03T10:50:24;14.20;97.50
5639;DHT22;2841;44.526;11.360;2023-04-03T10:52:54;14.50;96.90
5639;DHT22;2841;44.526;11.360;2023-04-03T10:55:24;14.80;95.40
5639;DHT22;2841;44.526;11.360;2023-04-03T10:57:55;15.00;94.40
5639;DHT22;2841;44.526;11.360;2023-04-03T11:00:25;15.20;93.90
5639;DHT22;2841;44.526;11.360;2023-04-03T11:02:57;15.50;93.00
5639;DHT22;2841;44.526;11.360;2023-04-03T11:05:26;15.60;92.50
5639;DHT22;2841;44.526;11.360;2023-04-03T11:07:55;15.90;92.00
5639;DHT22;2841;44.526;11.360;2023-04-03T11:10:23;16.40;91.10
5639;DHT22;2841;44.526;11.360;2023-04-03T11:12:52;16.70;90.30
5639;DHT22;2841;44.526;11.360;2023-04-03T11:15:21;17.00;88.70
5639;DHT22;2841;44.526;11.360;2023-04-03T11:17:51;17.20;87.40
5639;DHT22;2841;44.526;11.360;2023-04-03T11:20:21;17.20;85.70
5639;DHT22;2841;44.526;11.360;2023-04-03T11:22:54;17.30;84.50
5639;DHT22;2841;44.526;11.360;2023-04-03T11:25:24;17.60;84.60
5639;DHT22;2841;44.526;11.360;2023-04-03T11:27:54;17.80;82.20
5639;DHT22;2841;44.526;11.360;2023-04-03T11:30:22;17.70;79.70
5639;DHT22;2841;44.526;11.360;2023-04-03T11:35:35;17.50;80.40
5639;DHT22;2841;44.526;11.360;2023-04-03T11:38:03;17.50;79.80
5639;DHT22;2841;44.526;11.360;2023-04-03T11:40:32;17.60;79.40
5639;DHT22;2841;44.526;11.360;2023-04-03T11:43:03;17.80;78.70
5639;DHT22;2841;44.526;11.360;2023-04-03T11:45:37;18.00;77.00
5639;DHT22;2841;44.526;11.360;2023-04-03T11:48:04;18.00;76.30
5639;DHT22;2841;44.526;11.360;2023-04-03T11:50:39;18.00;76.10
5639;DHT22;2841;44.526;11.360;2023-04-03T11:55:58;17.90;75.30
5639;DHT22;2841;44.526;11.360;2023-04-03T11:58:26;17.50;74.30
5639;DHT22;2841;44.526;11.360;2023-04-03T12:09:22;18.10;72.90
5639;DHT22;2841;44.526;11.360;2023-04-03T12:11:50;17.90;72.50
5639;DHT22;2841;44.526;11.360;2023-04-03T12:14:17;18.10;72.60
5639;DHT22;2841;44.526;11.360;2023-04-03T12:16:45;18.40;72.40
5639;DHT22;2841;44.526;11.360;2023-04-03T12:19:32;18.60;72.30
5639;DHT22;2841;44.526;11.360;2023-04-03T12:22:09;18.90;71.80
5639;DHT22;2841;44.526;11.360;2023-04-03T12:24:38;19.00;70.20
5639;DHT22;2841;44.526;11.360;2023-04-03T12:27:09;18.90;69.80
5639;DHT22;2841;44.526;11.360;2023-04-03T12:29:42;19.00;69.70
5639;DHT22;2841;44.526;11.360;2023-04-03T12:32:14;18.90;69.10
5639;DHT22;2841;44.526;11.360;2023-04-03T12:34:48;18.90;68.20
5639;DHT22;2841;44.526;11.360;2023-04-03T12:37:20;18.90;67.80
5639;DHT22;2841;44.526;11.360;2023-04-03T12:39:56;18.90;67.60
5639;DHT22;2841;44.526;11.360;2023-04-03T12:42:35;18.90;67.10
5639;DHT22;2841;44.526;11.360;2023-04-03T12:45:10;18.50;66.90
5639;DHT22;2841;44.526;11.360;2023-04-03T12:47:39;18.60;67.40
5639;DHT22;2841;44.526;11.360;2023-04-03T12:50:16;18.90;66.60
5639;DHT22;2841;44.526;11.360;2023-04-03T12:52:44;18.40;64.90
5639;DHT22;2841;44.526;11.360;2023-04-03T12:55:17;18.10;65.50
5639;DHT22;2841;44.526;11.360;2023-04-03T12:57:43;18.30;65.90
5639;DHT22;2841;44.526;11.360;2023-04-03T13:03:04;18.90;63.60
5639;DHT22;2841;44.526;11.360;2023-04-03T13:05:32;18.80;63.90
5639;DHT22;2841;44.526;11.360;2023-04-03T13:08:00;18.80;63.80
5639;DHT22;2841;44.526;11.360;2023-04-03T13:10:29;18.90;63.60
5639;DHT22;2841;44.526;11.360;2023-04-03T13:12:57;18.80;63.20
5639;DHT22;2841;44.526;11.360;2023-04-03T13:15:25;18.60;64.00
5639;DHT22;2841;44.526;11.360;2023-04-03T13:17:54;18.70;63.30
5639;DHT22;2841;44.526;11.360;2023-04-03T13:20:23;18.90;62.70
5639;DHT22;2841;44.526;11.360;2023-04-03T13:22:52;18.90;62.10
5639;DHT22;2841;44.526;11.360;2023-04-03T13:25:20;18.60;61.60
5639;DHT22;2841;44.526;11.360;2023-04-03T13:27:48;18.40;61.70
5639;DHT22;2841;44.526;11.360;2023-04-03T13:30:19;18.60;61.90
5639;DHT22;2841;44.526;11.360;2023-04-03T13:32:46;18.90;61.40
5639;DHT22;2841;44.526;11.360;2023-04-03T13:35:29;18.80;60.30
5639;DHT22;2841;44.526;11.360;2023-04-03T13:37:57;18.40;60.40
5639;DHT22;2841;44.526;11.360;2023-04-03T13:40:25;17.90;60.50
5639;DHT22;2841;44.526;11.360;2023-04-03T13:43:01;17.90;60.80
5639;DHT22;2841;44.526;11.360;2023-04-03T13:45:28;18.10;60.50
5639;DHT22;2841;44.526;11.360;2023-04-03T13:48:06;18.40;60.00
5639;DHT22;2841;44.526;11.360;2023-04-03T13:50:33;18.60;59.60
5639;DHT22;2841;44.526;11.360;2023-04-03T13:53:16;18.70;59.40
5639;DHT22;2841;44.526;11.360;2023-04-03T13:55:52;18.70;58.90
5639;DHT22;2841;44.526;11.360;2023-04-03T13:58:22;18.70;58.40
5639;DHT22;2841;44.526;11.360;2023-04-03T14:00:51;18.50;58.00
5639;DHT22;2841;44.526;11.360;2023-04-03T14:03:19;18.60;58.40
5639;DHT22;2841;44.526;11.360;2023-04-03T14:05:47;18.80;57.90
5639;DHT22;2841;44.526;11.360;2023-04-03T14:08:14;18.90;57.30
5639;DHT22;2841;44.526;11.360;2023-04-03T14:10:41;19.00;56.90
5639;DHT22;2841;44.526;11.360;2023-04-03T14:13:09;19.10;57.00
5639;DHT22;2841;44.526;11.360;2023-04-03T14:15:37;19.20;57.00
5639;DHT22;2841;44.526;11.360;2023-04-03T14:18:04;19.40;56.60
5639;DHT22;2841;44.526;11.360;2023-04-03T14:20:31;19.50;56.00
5639;DHT22;2841;44.526;11.360;2023-04-03T14:22:57;19.40;55.90
5639;DHT22;2841;44.526;11.360;2023-04-03T14:25:24;19.40;55.80
5639;DHT22;2841;44.526;11.360;2023-04-03T14:27:51;19.40;55.70
5639;DHT22;2841;44.526;11.360;2023-04-03T14:30:20;19.60;55.80
5639;DHT22;2841;44.526;11.360;2023-04-03T14:32:48;19.80;55.70
5639;DHT22;2841;44.526;11.360;2023-04-03T14:35:16;19.90;55.40
5639;DHT22;2841;44.526;11.360;2023-04-03T14:37:43;20.00;55.10
5639;DHT22;2841;44.526;11.360;2023-04-03T14:40:11;20.00;54.70
5639;DHT22;2841;44.526;11.360;2023-04-03T14:42:39;19.90;54.40
5639;DHT22;2841;44.526;11.360;2023-04-03T14:45:07;19.90;54.50
5639;DHT22;2841;44.526;11.360;2023-04-03T14:47:43;20.00;54.40
5639;DHT22;2841;44.526;11.360;2023-04-03T14:50:14;20.10;54.20
5639;DHT22;2841;44.526;11.360;2023-04-03T14:52:41;20.30;54.00
5639;DHT22;2841;44.526;11.360;2023-04-03T14:55:08;20.50;53.70
5639;DHT22;2841;44.526;11.360;2023-04-03T14:57:35;20.50;53.70
5639;DHT22;2841;44.526;11.360;2023-04-03T15:00:03;20.50;53.60
5639;DHT22;2841;44.526;11.360;2023-04-03T15:02:30;20.50;53.30
5639;DHT22;2841;44.526;11.360;2023-04-03T15:04:57;20.50;53.40
5639;DHT22;2841;44.526;11.360;2023-04-03T15:07:26;20.50;52.70
5639;DHT22;2841;44.526;11.360;2023-04-03T15:09:53;20.60;52.90
5639;DHT22;2841;44.526;11.360;2023-04-03T15:12:21;20.70;52.60
5639;DHT22;2841;44.526;11.360;2023-04-03T15:14:48;20.90;52.60
5639;DHT22;2841;44.526;11.360;2023-04-03T15:17:16;21.10;52.30
5639;DHT22;2841;44.526;11.360;2023-04-03T15:19:43;21.60;52.30
5639;DHT22;2841;44.526;11.360;2023-04-03T15:22:12;22.90;51.30
5639;DHT22;2841;44.526;11.360;2023-04-03T15:24:41;25.80;49.20
5639;DHT22;2841;44.526;11.360;2023-04-03T15:27:08;29.10;44.90
5639;DHT22;2841;44.526;11.360;2023-04-03T15:29:35;31.60;41.60
5639;DHT22;2841;44.526;11.360;2023-04-03T15:32:02;33.20;39.40
5639;DHT22;2841;44.526;11.360;2023-04-03T15:34:29;34.60;38.50
5639;DHT22;2841;44.526;11.360;2023-04-03T15:36:56;35.90;37.50
5639;DHT22;2841;44.526;11.360;2023-04-03T15:39:24;36.60;36.80
5639;DHT22;2841;44.526;11.360;2023-04-03T15:41:53;37.00;36.40
5639;DHT22;2841;44.526;11.360;2023-04-03T15:44:19;37.70;36.10
5639;DHT22;2841;44.526;11.360;2023-04-03T15:46:47;38.40;35.80
5639;DHT22;2841;44.526;11.360;2023-04-03T15:49:16;38.90;35.20
5639;DHT22;2841;44.526;11.360;2023-04-03T15:51:43;39.30;34.90
5639;DHT22;2841;44.526;11.360;2023-04-03T15:54:10;39.60;34.50
5639;DHT22;2841;44.526;11.360;2023-04-03T15:56:37;39.70;34.00
5639;DHT22;2841;44.526;11.360;2023-04-03T15:59:05;39.90;33.60
5639;DHT22;2841;44.526;11.360;2023-04-03T16:01:32;39.80;33.00
5639;DHT22;2841;44.526;11.360;2023-04-03T16:03:59;39.70;32.30
5639;DHT22;2841;44.526;11.360;2023-04-03T16:06:26;39.50;31.80
5639;DHT22;2841;44.526;11.360;2023-04-03T16:08:54;39.50;31.90
5639;DHT22;2841;44.526;11.360;2023-04-03T16:11:23;39.60;31.50
5639;DHT22;2841;44.526;11.360;2023-04-03T16:13:49;39.80;31.20
5639;DHT22;2841;44.526;11.360;2023-04-03T16:16:17;40.00;30.60
5639;DHT22;2841;44.526;11.360;2023-04-03T16:18:44;40.00;30.30